sensor_id;sensor_type;location;lat;lon;timestamp;P1;durP1;ratioP1;P2;durP2;ratioP2
37339;SDS011;23223;51.006;7.610;2024-03-25T00:02:12;6.43;;;2.10;;
37339;SDS011;23223;51.006;7.610;2024-03-25T00:04:38;13.73;;;3.35;;
37339;SDS011;23223;51.006;7.610;2024-03-25T00:07:04;8.90;;;2.50;;
37339;SDS011;23223;51.006;7.610;2024-03-25T00:09:30;10.68;;;2.80;;
37339;SDS011;23223;51.006;7.610;2024-03-25T00:11:55;10.10;;;2.95;;
37339;SDS011;23223;51.006;7.610;2024-03-25T00:14:21;9.60;;;2.38;;
37339;SDS011;23223;51.006;7.610;2024-03-25T00:16:47;10.50;;;2.22;;
37339;SDS011;23223;51.006;7.610;2024-03-25T00:19:13;15.70;;;3.35;;
37339;SDS011;23223;51.006;7.610;2024-03-25T00:21:38;18.85;;;4.15;;
37339;SDS011;23223;51.006;7.610;2024-03-25T00:24:04;10.65;;;3.65;;
37339;SDS011;23223;51.006;7.610;2024-03-25T00:26:30;10.27;;;3.08;;
37339;SDS011;23223;51.006;7.610;2024-03-25T00:28:56;16.95;;;3.72;;
37339;SDS011;23223;51.006;7.610;2024-03-25T00:31:21;14.50;;;5.13;;
37339;SDS011;23223;51.006;7.610;2024-03-25T00:33:47;12.45;;;3.45;;
37339;SDS011;23223;51.006;7.610;2024-03-25T00:36:12;15.10;;;3.53;;
37339;SDS011;23223;51.006;7.610;2024-03-25T00:38:38;18.70;;;4.15;;
37339;SDS011;23223;51.006;7.610;2024-03-25T00:41:04;20.00;;;3.60;;
37339;SDS011;23223;51.006;7.610;2024-03-25T00:43:30;17.70;;;3.30;;
37339;SDS011;23223;51.006;7.610;2024-03-25T00:45:55;9.32;;;2.85;;
37339;SDS011;23223;51.006;7.610;2024-03-25T00:48:24;5.93;;;1.75;;
37339;SDS011;23223;51.006;7.610;2024-03-25T00:50:49;7.10;;;2.22;;
37339;SDS011;23223;51.006;7.610;2024-03-25T00:53:15;15.70;;;3.55;;
37339;SDS011;23223;51.006;7.610;2024-03-25T00:55:40;9.60;;;3.10;;
37339;SDS011;23223;51.006;7.610;2024-03-25T00:58:06;15.68;;;3.92;;
37339;SDS011;23223;51.006;7.610;2024-03-25T01:00:32;17.05;;;4.30;;
37339;SDS011;23223;51.006;7.610;2024-03-25T01:02:57;13.80;;;3.42;;
37339;SDS011;23223;51.006;7.610;2024-03-25T01:05:23;14.52;;;2.28;;
37339;SDS011;23223;51.006;7.610;2024-03-25T01:07:48;15.20;;;3.63;;
37339;SDS011;23223;51.006;7.610;2024-03-25T01:10:17;18.17;;;3.65;;
37339;SDS011;23223;51.006;7.610;2024-03-25T01:12:43;24.15;;;4.32;;
37339;SDS011;23223;51.006;7.610;2024-03-25T01:15:08;12.65;;;3.28;;
37339;SDS011;23223;51.006;7.610;2024-03-25T01:17:36;16.33;;;4.05;;
37339;SDS011;23223;51.006;7.610;2024-03-25T01:20:02;12.65;;;3.28;;
37339;SDS011;23223;51.006;7.610;2024-03-25T01:22:29;21.52;;;4.65;;
37339;SDS011;23223;51.006;7.610;2024-03-25T01:24:56;16.63;;;3.92;;
37339;SDS011;23223;51.006;7.610;2024-03-25T01:27:22;13.02;;;3.42;;
37339;SDS011;23223;51.006;7.610;2024-03-25T01:29:47;21.85;;;5.20;;
37339;SDS011;23223;51.006;7.610;2024-03-25T01:32:13;19.88;;;4.47;;
37339;SDS011;23223;51.006;7.610;2024-03-25T01:34:38;13.50;;;3.70;;
37339;SDS011;23223;51.006;7.610;2024-03-25T01:37:04;20.55;;;5.68;;
37339;SDS011;23223;51.006;7.610;2024-03-25T01:39:30;15.40;;;3.97;;
37339;SDS011;23223;51.006;7.610;2024-03-25T01:41:56;13.50;;;4.57;;
37339;SDS011;23223;51.006;7.610;2024-03-25T01:44:21;21.90;;;5.63;;
37339;SDS011;23223;51.006;7.610;2024-03-25T01:46:47;24.73;;;4.45;;
37339;SDS011;23223;51.006;7.610;2024-03-25T01:49:12;18.95;;;4.63;;
37339;SDS011;23223;51.006;7.610;2024-03-25T01:51:39;19.95;;;5.82;;
37339;SDS011;23223;51.006;7.610;2024-03-25T01:54:06;13.18;;;4.00;;
37339;SDS011;23223;51.006;7.610;2024-03-25T01:56:33;22.80;;;3.85;;
37339;SDS011;23223;51.006;7.610;2024-03-25T01:59:01;13.23;;;4.00;;
37339;SDS011;23223;51.006;7.610;2024-03-25T02:01:28;17.35;;;4.50;;
37339;SDS011;23223;51.006;7.610;2024-03-25T02:03:54;7.55;;;2.03;;
37339;SDS011;23223;51.006;7.610;2024-03-25T02:06:20;15.85;;;3.83;;
37339;SDS011;23223;51.006;7.610;2024-03-25T02:08:46;9.38;;;3.08;;
37339;SDS011;23223;51.006;7.610;2024-03-25T02:11:14;10.45;;;3.00;;
37339;SDS011;23223;51.006;7.610;2024-03-25T02:13:40;9.10;;;2.90;;
37339;SDS011;23223;51.006;7.610;2024-03-25T02:16:06;11.13;;;3.10;;
37339;SDS011;23223;51.006;7.610;2024-03-25T02:18:31;12.45;;;4.05;;
37339;SDS011;23223;51.006;7.610;2024-03-25T02:20:58;9.35;;;3.88;;
37339;SDS011;23223;51.006;7.610;2024-03-25T02:23:24;11.52;;;3.13;;
37339;SDS011;23223;51.006;7.610;2024-03-25T02:25:50;6.03;;;3.17;;
37339;SDS011;23223;51.006;7.610;2024-03-25T02:28:16;12.68;;;4.47;;
37339;SDS011;23223;51.006;7.610;2024-03-25T02:30:42;16.75;;;4.25;;
37339;SDS011;23223;51.006;7.610;2024-03-25T02:33:08;10.40;;;3.33;;
37339;SDS011;23223;51.006;7.610;2024-03-25T02:35:33;10.90;;;3.33;;
37339;SDS011;23223;51.006;7.610;2024-03-25T02:38:00;22.55;;;6.03;;
37339;SDS011;23223;51.006;7.610;2024-03-25T02:40:26;9.25;;;3.00;;
37339;SDS011;23223;51.006;7.610;2024-03-25T02:42:52;11.00;;;3.80;;
37339;SDS011;23223;51.006;7.610;2024-03-25T02:45:18;19.90;;;4.78;;
37339;SDS011;23223;51.006;7.610;2024-03-25T02:47:45;18.23;;;5.03;;
37339;SDS011;23223;51.006;7.610;2024-03-25T02:50:11;17.13;;;4.72;;
37339;SDS011;23223;51.006;7.610;2024-03-25T02:52:37;15.10;;;4.60;;
37339;SDS011;23223;51.006;7.610;2024-03-25T02:55:03;12.40;;;3.88;;
37339;SDS011;23223;51.006;7.610;2024-03-25T02:57:29;12.15;;;4.07;;
37339;SDS011;23223;51.006;7.610;2024-03-25T02:59:54;20.15;;;6.40;;
37339;SDS011;23223;51.006;7.610;2024-03-25T03:02:20;16.98;;;5.22;;
37339;SDS011;23223;51.006;7.610;2024-03-25T03:04:45;16.25;;;6.57;;
37339;SDS011;23223;51.006;7.610;2024-03-25T03:07:11;18.02;;;5.20;;
37339;SDS011;23223;51.006;7.610;2024-03-25T03:09:37;15.90;;;5.43;;
37339;SDS011;23223;51.006;7.610;2024-03-25T03:12:02;11.48;;;4.35;;
37339;SDS011;23223;51.006;7.610;2024-03-25T03:14:28;11.65;;;4.20;;
37339;SDS011;23223;51.006;7.610;2024-03-25T03:16:54;16.58;;;4.82;;
37339;SDS011;23223;51.006;7.610;2024-03-25T03:19:21;14.65;;;4.70;;
37339;SDS011;23223;51.006;7.610;2024-03-25T03:21:47;19.77;;;5.13;;
37339;SDS011;23223;51.006;7.610;2024-03-25T03:24:12;19.10;;;5.70;;
37339;SDS011;23223;51.006;7.610;2024-03-25T03:26:38;21.50;;;5.85;;
37339;SDS011;23223;51.006;7.610;2024-03-25T03:29:04;19.60;;;5.38;;
37339;SDS011;23223;51.006;7.610;2024-03-25T03:31:29;25.63;;;5.32;;
37339;SDS011;23223;51.006;7.610;2024-03-25T03:33:55;10.50;;;3.50;;
37339;SDS011;23223;51.006;7.610;2024-03-25T03:36:21;14.35;;;5.05;;
37339;SDS011;23223;51.006;7.610;2024-03-25T03:38:49;18.60;;;5.13;;
37339;SDS011;23223;51.006;7.610;2024-03-25T03:41:16;22.02;;;5.68;;
37339;SDS011;23223;51.006;7.610;2024-03-25T03:43:41;14.38;;;4.50;;
37339;SDS011;23223;51.006;7.610;2024-03-25T03:46:07;12.85;;;4.50;;
37339;SDS011;23223;51.006;7.610;2024-03-25T03:48:32;16.42;;;5.28;;
37339;SDS011;23223;51.006;7.610;2024-03-25T03:50:58;20.75;;;5.40;;
37339;SDS011;23223;51.006;7.610;2024-03-25T03:53:23;9.98;;;3.90;;
37339;SDS011;23223;51.006;7.610;2024-03-25T03:55:55;20.52;;;6.03;;
37339;SDS011;23223;51.006;7.610;2024-03-25T03:58:22;14.65;;;4.68;;
37339;SDS011;23223;51.006;7.610;2024-03-25T04:00:49;21.17;;;5.40;;
37339;SDS011;23223;51.006;7.610;2024-03-25T04:03:15;13.77;;;4.65;;
37339;SDS011;23223;51.006;7.610;2024-03-25T04:05:41;8.75;;;4.32;;
37339;SDS011;23223;51.006;7.610;2024-03-25T04:08:06;15.40;;;6.13;;
37339;SDS011;23223;51.006;7.610;2024-03-25T04:10:33;18.35;;;4.85;;
37339;SDS011;23223;51.006;7.610;2024-03-25T04:12:59;24.88;;;7.30;;
37339;SDS011;23223;51.006;7.610;2024-03-25T04:15:24;16.95;;;5.47;;
37339;SDS011;23223;51.006;7.610;2024-03-25T04:17:51;17.70;;;7.20;;
37339;SDS011;23223;51.006;7.610;2024-03-25T04:20:17;15.52;;;5.38;;
37339;SDS011;23223;51.006;7.610;2024-03-25T04:22:43;19.40;;;5.95;;
37339;SDS011;23223;51.006;7.610;2024-03-25T04:25:09;15.23;;;5.47;;
37339;SDS011;23223;51.006;7.610;2024-03-25T04:27:41;22.88;;;6.45;;
37339;SDS011;23223;51.006;7.610;2024-03-25T04:30:07;19.48;;;5.40;;
37339;SDS011;23223;51.006;7.610;2024-03-25T04:32:34;13.77;;;6.03;;
37339;SDS011;23223;51.006;7.610;2024-03-25T04:35:00;20.83;;;6.30;;
37339;SDS011;23223;51.006;7.610;2024-03-25T04:37:27;12.88;;;3.72;;
37339;SDS011;23223;51.006;7.610;2024-03-25T04:39:55;16.25;;;4.40;;
37339;SDS011;23223;51.006;7.610;2024-03-25T04:42:22;12.45;;;3.78;;
37339;SDS011;23223;51.006;7.610;2024-03-25T04:44:48;23.20;;;6.22;;
37339;SDS011;23223;51.006;7.610;2024-03-25T04:47:13;25.30;;;5.95;;
37339;SDS011;23223;51.006;7.610;2024-03-25T04:49:41;14.77;;;5.43;;
37339;SDS011;23223;51.006;7.610;2024-03-25T04:52:07;17.88;;;6.32;;
37339;SDS011;23223;51.006;7.610;2024-03-25T04:54:33;19.77;;;5.95;;
37339;SDS011;23223;51.006;7.610;2024-03-25T04:56:59;22.55;;;5.80;;
37339;SDS011;23223;51.006;7.610;2024-03-25T04:59:24;16.95;;;5.70;;
37339;SDS011;23223;51.006;7.610;2024-03-25T05:01:50;21.98;;;6.35;;
37339;SDS011;23223;51.006;7.610;2024-03-25T05:04:17;18.80;;;6.45;;
37339;SDS011;23223;51.006;7.610;2024-03-25T05:06:45;20.38;;;6.38;;
37339;SDS011;23223;51.006;7.610;2024-03-25T05:09:11;22.23;;;7.20;;
37339;SDS011;23223;51.006;7.610;2024-03-25T05:11:36;20.05;;;6.70;;
37339;SDS011;23223;51.006;7.610;2024-03-25T05:14:02;19.60;;;6.75;;
37339;SDS011;23223;51.006;7.610;2024-03-25T05:16:27;30.00;;;7.22;;
37339;SDS011;23223;51.006;7.610;2024-03-25T05:18:53;24.10;;;6.95;;
37339;SDS011;23223;51.006;7.610;2024-03-25T05:21:18;20.85;;;7.40;;
37339;SDS011;23223;51.006;7.610;2024-03-25T05:23:44;14.23;;;6.95;;
37339;SDS011;23223;51.006;7.610;2024-03-25T05:26:09;20.60;;;7.78;;
37339;SDS011;23223;51.006;7.610;2024-03-25T05:28:35;18.67;;;7.97;;
37339;SDS011;23223;51.006;7.610;2024-03-25T05:31:10;13.55;;;4.57;;
37339;SDS011;23223;51.006;7.610;2024-03-25T05:33:35;24.10;;;7.55;;
37339;SDS011;23223;51.006;7.610;2024-03-25T05:36:02;19.02;;;7.55;;
37339;SDS011;23223;51.006;7.610;2024-03-25T05:38:28;24.02;;;7.85;;
37339;SDS011;23223;51.006;7.610;2024-03-25T05:40:54;21.38;;;8.95;;
37339;SDS011;23223;51.006;7.610;2024-03-25T05:43:20;26.52;;;8.90;;
37339;SDS011;23223;51.006;7.610;2024-03-25T05:45:55;17.63;;;8.07;;
37339;SDS011;23223;51.006;7.610;2024-03-25T05:48:21;28.48;;;7.68;;
37339;SDS011;23223;51.006;7.610;2024-03-25T05:51:02;20.17;;;7.47;;
37339;SDS011;23223;51.006;7.610;2024-03-25T05:53:30;21.88;;;8.30;;
37339;SDS011;23223;51.006;7.610;2024-03-25T05:55:56;16.17;;;6.35;;
37339;SDS011;23223;51.006;7.610;2024-03-25T05:58:24;21.27;;;9.82;;
37339;SDS011;23223;51.006;7.610;2024-03-25T06:00:49;25.58;;;9.07;;
37339;SDS011;23223;51.006;7.610;2024-03-25T06:03:16;22.20;;;8.77;;
37339;SDS011;23223;51.006;7.610;2024-03-25T06:05:42;18.77;;;8.98;;
37339;SDS011;23223;51.006;7.610;2024-03-25T06:08:07;19.48;;;7.55;;
37339;SDS011;23223;51.006;7.610;2024-03-25T06:10:41;23.65;;;7.85;;
37339;SDS011;23223;51.006;7.610;2024-03-25T06:13:06;25.55;;;7.53;;
37339;SDS011;23223;51.006;7.610;2024-03-25T06:15:32;20.60;;;7.95;;
37339;SDS011;23223;51.006;7.610;2024-03-25T06:17:58;33.15;;;9.15;;
37339;SDS011;23223;51.006;7.610;2024-03-25T06:20:23;17.58;;;7.95;;
37339;SDS011;23223;51.006;7.610;2024-03-25T06:22:49;19.88;;;7.38;;
37339;SDS011;23223;51.006;7.610;2024-03-25T06:25:15;16.05;;;7.63;;
37339;SDS011;23223;51.006;7.610;2024-03-25T06:27:42;27.40;;;7.63;;
37339;SDS011;23223;51.006;7.610;2024-03-25T06:30:09;23.17;;;7.22;;
37339;SDS011;23223;51.006;7.610;2024-03-25T06:32:54;19.13;;;6.20;;
37339;SDS011;23223;51.006;7.610;2024-03-25T06:35:38;20.35;;;6.32;;
37339;SDS011;23223;51.006;7.610;2024-03-25T06:38:03;19.98;;;4.90;;
37339;SDS011;23223;51.006;7.610;2024-03-25T06:40:29;7.57;;;3.78;;
37339;SDS011;23223;51.006;7.610;2024-03-25T06:42:55;21.83;;;6.07;;
37339;SDS011;23223;51.006;7.610;2024-03-25T06:45:21;19.00;;;5.05;;
37339;SDS011;23223;51.006;7.610;2024-03-25T06:47:47;11.57;;;3.80;;
37339;SDS011;23223;51.006;7.610;2024-03-25T06:50:12;12.85;;;4.97;;
37339;SDS011;23223;51.006;7.610;2024-03-25T06:52:38;9.65;;;3.53;;
37339;SDS011;23223;51.006;7.610;2024-03-25T06:55:04;15.18;;;3.65;;
37339;SDS011;23223;51.006;7.610;2024-03-25T06:57:29;23.73;;;5.07;;
37339;SDS011;23223;51.006;7.610;2024-03-25T06:59:55;17.52;;;5.78;;
37339;SDS011;23223;51.006;7.610;2024-03-25T07:02:22;16.20;;;5.47;;
37339;SDS011;23223;51.006;7.610;2024-03-25T07:04:48;22.33;;;5.45;;
37339;SDS011;23223;51.006;7.610;2024-03-25T07:07:14;18.67;;;4.97;;
37339;SDS011;23223;51.006;7.610;2024-03-25T07:09:39;20.45;;;5.15;;
37339;SDS011;23223;51.006;7.610;2024-03-25T07:12:05;19.38;;;5.32;;
37339;SDS011;23223;51.006;7.610;2024-03-25T07:14:32;20.83;;;5.95;;
37339;SDS011;23223;51.006;7.610;2024-03-25T07:16:58;17.00;;;4.57;;
37339;SDS011;23223;51.006;7.610;2024-03-25T07:19:23;14.57;;;4.95;;
37339;SDS011;23223;51.006;7.610;2024-03-25T07:21:49;17.20;;;5.30;;
37339;SDS011;23223;51.006;7.610;2024-03-25T07:24:14;23.83;;;5.07;;
37339;SDS011;23223;51.006;7.610;2024-03-25T07:26:40;21.95;;;7.07;;
37339;SDS011;23223;51.006;7.610;2024-03-25T07:29:05;16.95;;;5.97;;
37339;SDS011;23223;51.006;7.610;2024-03-25T07:31:31;19.48;;;4.85;;
37339;SDS011;23223;51.006;7.610;2024-03-25T07:33:57;15.90;;;5.85;;
37339;SDS011;23223;51.006;7.610;2024-03-25T07:36:22;21.02;;;6.25;;
37339;SDS011;23223;51.006;7.610;2024-03-25T07:38:48;21.67;;;5.38;;
37339;SDS011;23223;51.006;7.610;2024-03-25T07:41:13;16.33;;;6.00;;
37339;SDS011;23223;51.006;7.610;2024-03-25T07:43:39;21.15;;;6.93;;
37339;SDS011;23223;51.006;7.610;2024-03-25T07:46:04;19.55;;;5.68;;
37339;SDS011;23223;51.006;7.610;2024-03-25T07:48:30;26.77;;;6.13;;
37339;SDS011;23223;51.006;7.610;2024-03-25T07:50:55;20.15;;;5.38;;
37339;SDS011;23223;51.006;7.610;2024-03-25T07:53:21;15.20;;;5.35;;
37339;SDS011;23223;51.006;7.610;2024-03-25T07:55:46;25.23;;;6.72;;
37339;SDS011;23223;51.006;7.610;2024-03-25T07:58:12;17.48;;;5.43;;
37339;SDS011;23223;51.006;7.610;2024-03-25T08:00:38;18.50;;;4.85;;
37339;SDS011;23223;51.006;7.610;2024-03-25T08:03:03;17.88;;;5.70;;
37339;SDS011;23223;51.006;7.610;2024-03-25T08:05:29;14.77;;;4.63;;
37339;SDS011;23223;51.006;7.610;2024-03-25T08:07:55;12.52;;;4.25;;
37339;SDS011;23223;51.006;7.610;2024-03-25T08:10:21;17.98;;;4.57;;
37339;SDS011;23223;51.006;7.610;2024-03-25T08:12:46;21.83;;;5.60;;
37339;SDS011;23223;51.006;7.610;2024-03-25T08:15:13;15.25;;;4.93;;
37339;SDS011;23223;51.006;7.610;2024-03-25T08:17:39;15.75;;;4.15;;
37339;SDS011;23223;51.006;7.610;2024-03-25T08:20:04;12.48;;;2.97;;
37339;SDS011;23223;51.006;7.610;2024-03-25T08:22:30;14.52;;;4.20;;
37339;SDS011;23223;51.006;7.610;2024-03-25T08:24:56;13.77;;;3.67;;
37339;SDS011;23223;51.006;7.610;2024-03-25T08:27:21;18.13;;;5.32;;
37339;SDS011;23223;51.006;7.610;2024-03-25T08:29:47;10.50;;;3.25;;
37339;SDS011;23223;51.006;7.610;2024-03-25T08:32:14;10.52;;;3.03;;
37339;SDS011;23223;51.006;7.610;2024-03-25T08:34:39;20.35;;;4.20;;
37339;SDS011;23223;51.006;7.610;2024-03-25T08:37:05;17.13;;;4.10;;
37339;SDS011;23223;51.006;7.610;2024-03-25T08:39:30;16.23;;;4.03;;
37339;SDS011;23223;51.006;7.610;2024-03-25T08:41:56;11.18;;;3.75;;
37339;SDS011;23223;51.006;7.610;2024-03-25T08:44:21;6.13;;;2.22;;
37339;SDS011;23223;51.006;7.610;2024-03-25T08:46:47;11.23;;;3.35;;
37339;SDS011;23223;51.006;7.610;2024-03-25T08:49:12;8.18;;;2.83;;
37339;SDS011;23223;51.006;7.610;2024-03-25T08:51:38;15.75;;;3.58;;
37339;SDS011;23223;51.006;7.610;2024-03-25T08:54:04;13.63;;;3.40;;
37339;SDS011;23223;51.006;7.610;2024-03-25T08:56:29;12.35;;;3.70;;
37339;SDS011;23223;51.006;7.610;2024-03-25T08:58:55;19.02;;;3.72;;
37339;SDS011;23223;51.006;7.610;2024-03-25T09:01:22;9.05;;;2.83;;
37339;SDS011;23223;51.006;7.610;2024-03-25T09:03:49;12.35;;;3.03;;
37339;SDS011;23223;51.006;7.610;2024-03-25T09:06:15;11.52;;;3.47;;
37339;SDS011;23223;51.006;7.610;2024-03-25T09:08:41;13.35;;;3.70;;
37339;SDS011;23223;51.006;7.610;2024-03-25T09:11:25;14.20;;;4.80;;
37339;SDS011;23223;51.006;7.610;2024-03-25T09:13:51;7.22;;;2.88;;
37339;SDS011;23223;51.006;7.610;2024-03-25T09:16:18;12.32;;;3.17;;
37339;SDS011;23223;51.006;7.610;2024-03-25T09:18:43;9.23;;;2.47;;
37339;SDS011;23223;51.006;7.610;2024-03-25T09:21:09;12.02;;;2.72;;
37339;SDS011;23223;51.006;7.610;2024-03-25T09:23:34;12.70;;;2.85;;
37339;SDS011;23223;51.006;7.610;2024-03-25T09:26:00;20.20;;;3.85;;
37339;SDS011;23223;51.006;7.610;2024-03-25T09:28:26;11.27;;;3.17;;
37339;SDS011;23223;51.006;7.610;2024-03-25T09:30:51;15.23;;;2.90;;
37339;SDS011;23223;51.006;7.610;2024-03-25T09:33:17;6.15;;;2.38;;
37339;SDS011;23223;51.006;7.610;2024-03-25T09:35:42;14.70;;;2.30;;
37339;SDS011;23223;51.006;7.610;2024-03-25T09:38:08;12.00;;;3.13;;
37339;SDS011;23223;51.006;7.610;2024-03-25T09:40:39;13.02;;;2.25;;
37339;SDS011;23223;51.006;7.610;2024-03-25T09:43:06;13.23;;;2.53;;
37339;SDS011;23223;51.006;7.610;2024-03-25T09:45:37;13.10;;;3.00;;
37339;SDS011;23223;51.006;7.610;2024-03-25T09:48:05;14.60;;;2.60;;
37339;SDS011;23223;51.006;7.610;2024-03-25T09:50:32;15.20;;;3.17;;
37339;SDS011;23223;51.006;7.610;2024-03-25T09:52:57;12.23;;;2.00;;
37339;SDS011;23223;51.006;7.610;2024-03-25T09:55:23;11.00;;;3.25;;
37339;SDS011;23223;51.006;7.610;2024-03-25T09:57:49;11.27;;;3.08;;
37339;SDS011;23223;51.006;7.610;2024-03-25T10:00:14;11.35;;;2.60;;
37339;SDS011;23223;51.006;7.610;2024-03-25T10:02:41;9.32;;;2.33;;
37339;SDS011;23223;51.006;7.610;2024-03-25T10:05:07;15.48;;;2.83;;
37339;SDS011;23223;51.006;7.610;2024-03-25T10:07:33;6.43;;;2.03;;
37339;SDS011;23223;51.006;7.610;2024-03-25T10:10:04;12.77;;;3.08;;
37339;SDS011;23223;51.006;7.610;2024-03-25T10:12:30;9.80;;;2.22;;
37339;SDS011;23223;51.006;7.610;2024-03-25T10:14:56;10.10;;;2.70;;
37339;SDS011;23223;51.006;7.610;2024-03-25T10:17:22;11.57;;;2.15;;
37339;SDS011;23223;51.006;7.610;2024-03-25T10:19:48;13.30;;;2.50;;
37339;SDS011;23223;51.006;7.610;2024-03-25T10:22:13;14.32;;;2.55;;
37339;SDS011;23223;51.006;7.610;2024-03-25T10:27:05;9.15;;;2.38;;
37339;SDS011;23223;51.006;7.610;2024-03-25T10:29:34;10.35;;;2.92;;
37339;SDS011;23223;51.006;7.610;2024-03-25T10:32:00;11.95;;;2.58;;
37339;SDS011;23223;51.006;7.610;2024-03-25T10:34:26;11.18;;;1.98;;
37339;SDS011;23223;51.006;7.610;2024-03-25T10:36:52;6.57;;;2.22;;
37339;SDS011;23223;51.006;7.610;2024-03-25T10:39:26;7.18;;;1.60;;
37339;SDS011;23223;51.006;7.610;2024-03-25T10:41:56;4.40;;;1.48;;
37339;SDS011;23223;51.006;7.610;2024-03-25T10:44:25;13.23;;;3.08;;
37339;SDS011;23223;51.006;7.610;2024-03-25T10:46:53;11.60;;;2.10;;
37339;SDS011;23223;51.006;7.610;2024-03-25T10:49:33;9.90;;;2.40;;
37339;SDS011;23223;51.006;7.610;2024-03-25T10:52:03;11.10;;;2.30;;
37339;SDS011;23223;51.006;7.610;2024-03-25T10:54:31;9.98;;;1.77;;
37339;SDS011;23223;51.006;7.610;2024-03-25T10:56:58;8.70;;;2.28;;
37339;SDS011;23223;51.006;7.610;2024-03-25T10:59:25;12.20;;;2.20;;
37339;SDS011;23223;51.006;7.610;2024-03-25T11:01:52;12.82;;;2.42;;
37339;SDS011;23223;51.006;7.610;2024-03-25T11:04:18;6.90;;;1.92;;
37339;SDS011;23223;51.006;7.610;2024-03-25T11:06:45;12.18;;;2.20;;
37339;SDS011;23223;51.006;7.610;2024-03-25T11:09:11;8.38;;;2.10;;
37339;SDS011;23223;51.006;7.610;2024-03-25T11:11:52;11.63;;;2.28;;
37339;SDS011;23223;51.006;7.610;2024-03-25T11:14:18;8.50;;;2.00;;
37339;SDS011;23223;51.006;7.610;2024-03-25T11:16:51;6.32;;;1.58;;
37339;SDS011;23223;51.006;7.610;2024-03-25T11:19:20;7.90;;;1.60;;
37339;SDS011;23223;51.006;7.610;2024-03-25T11:21:51;6.57;;;1.90;;
37339;SDS011;23223;51.006;7.610;2024-03-25T11:24:26;9.68;;;2.15;;
37339;SDS011;23223;51.006;7.610;2024-03-25T11:26:53;11.02;;;1.80;;
37339;SDS011;23223;51.006;7.610;2024-03-25T11:29:18;11.60;;;2.22;;
37339;SDS011;23223;51.006;7.610;2024-03-25T11:31:44;10.20;;;2.10;;
37339;SDS011;23223;51.006;7.610;2024-03-25T11:34:10;6.10;;;2.20;;
37339;SDS011;23223;51.006;7.610;2024-03-25T11:36:36;9.65;;;2.20;;
37339;SDS011;23223;51.006;7.610;2024-03-25T11:39:02;8.27;;;1.92;;
37339;SDS011;23223;51.006;7.610;2024-03-25T11:41:32;3.58;;;1.60;;
37339;SDS011;23223;51.006;7.610;2024-03-25T11:43:58;14.07;;;2.15;;
37339;SDS011;23223;51.006;7.610;2024-03-25T11:46:25;7.68;;;1.75;;
37339;SDS011;23223;51.006;7.610;2024-03-25T11:48:51;6.97;;;1.65;;
37339;SDS011;23223;51.006;7.610;2024-03-25T11:51:18;6.00;;;1.67;;
37339;SDS011;23223;51.006;7.610;2024-03-25T11:53:44;6.10;;;1.88;;
37339;SDS011;23223;51.006;7.610;2024-03-25T11:56:11;8.57;;;1.67;;
37339;SDS011;23223;51.006;7.610;2024-03-25T11:58:37;5.43;;;1.50;;
37339;SDS011;23223;51.006;7.610;2024-03-25T12:01:03;8.15;;;2.03;;
37339;SDS011;23223;51.006;7.610;2024-03-25T12:03:29;8.63;;;1.67;;
37339;SDS011;23223;51.006;7.610;2024-03-25T12:05:55;6.45;;;1.40;;
37339;SDS011;23223;51.006;7.610;2024-03-25T12:08:21;15.50;;;1.90;;
37339;SDS011;23223;51.006;7.610;2024-03-25T12:10:51;25.05;;;2.88;;
37339;SDS011;23223;51.006;7.610;2024-03-25T12:13:37;12.35;;;2.03;;
37339;SDS011;23223;51.006;7.610;2024-03-25T12:16:06;12.10;;;2.55;;
37339;SDS011;23223;51.006;7.610;2024-03-25T12:18:33;5.30;;;1.83;;
37339;SDS011;23223;51.006;7.610;2024-03-25T12:20:59;5.68;;;1.70;;
37339;SDS011;23223;51.006;7.610;2024-03-25T12:23:34;9.18;;;2.00;;
37339;SDS011;23223;51.006;7.610;2024-03-25T12:26:01;9.23;;;2.03;;
37339;SDS011;23223;51.006;7.610;2024-03-25T12:28:28;6.75;;;1.98;;
37339;SDS011;23223;51.006;7.610;2024-03-25T12:30:56;4.97;;;1.58;;
37339;SDS011;23223;51.006;7.610;2024-03-25T12:33:22;9.68;;;2.05;;
37339;SDS011;23223;51.006;7.610;2024-03-25T12:35:48;5.45;;;1.70;;
37339;SDS011;23223;51.006;7.610;2024-03-25T12:38:27;6.93;;;1.67;;
37339;SDS011;23223;51.006;7.610;2024-03-25T12:41:03;7.00;;;1.10;;
37339;SDS011;23223;51.006;7.610;2024-03-25T12:43:33;3.70;;;1.25;;
37339;SDS011;23223;51.006;7.610;2024-03-25T12:45:59;7.50;;;2.30;;
37339;SDS011;23223;51.006;7.610;2024-03-25T12:48:25;3.97;;;1.30;;
37339;SDS011;23223;51.006;7.610;2024-03-25T12:50:51;6.43;;;1.50;;
37339;SDS011;23223;51.006;7.610;2024-03-25T12:53:18;5.13;;;1.60;;
37339;SDS011;23223;51.006;7.610;2024-03-25T12:55:47;4.90;;;1.77;;
37339;SDS011;23223;51.006;7.610;2024-03-25T12:58:13;6.10;;;2.10;;
37339;SDS011;23223;51.006;7.610;2024-03-25T13:00:39;10.38;;;1.73;;
37339;SDS011;23223;51.006;7.610;2024-03-25T13:03:06;7.30;;;2.05;;
37339;SDS011;23223;51.006;7.610;2024-03-25T13:05:32;8.05;;;1.38;;
37339;SDS011;23223;51.006;7.610;2024-03-25T13:07:59;6.07;;;1.58;;
37339;SDS011;23223;51.006;7.610;2024-03-25T13:10:24;5.35;;;1.80;;
37339;SDS011;23223;51.006;7.610;2024-03-25T13:12:50;5.00;;;1.55;;
37339;SDS011;23223;51.006;7.610;2024-03-25T13:15:16;8.93;;;1.90;;
37339;SDS011;23223;51.006;7.610;2024-03-25T13:17:41;5.40;;;1.63;;
37339;SDS011;23223;51.006;7.610;2024-03-25T13:20:08;7.22;;;1.83;;
37339;SDS011;23223;51.006;7.610;2024-03-25T13:22:34;9.30;;;1.98;;
37339;SDS011;23223;51.006;7.610;2024-03-25T13:25:00;8.50;;;1.92;;
37339;SDS011;23223;51.006;7.610;2024-03-25T13:27:25;5.38;;;1.52;;
37339;SDS011;23223;51.006;7.610;2024-03-25T13:29:51;6.25;;;1.38;;
37339;SDS011;23223;51.006;7.610;2024-03-25T13:32:18;5.40;;;1.90;;
37339;SDS011;23223;51.006;7.610;2024-03-25T13:34:44;5.70;;;1.63;;
37339;SDS011;23223;51.006;7.610;2024-03-25T13:37:09;5.10;;;1.50;;
37339;SDS011;23223;51.006;7.610;2024-03-25T13:39:36;6.05;;;1.63;;
37339;SDS011;23223;51.006;7.610;2024-03-25T13:42:01;6.63;;;1.50;;
37339;SDS011;23223;51.006;7.610;2024-03-25T13:44:27;5.20;;;1.65;;
37339;SDS011;23223;51.006;7.610;2024-03-25T13:46:53;8.00;;;3.45;;
37339;SDS011;23223;51.006;7.610;2024-03-25T13:49:19;6.10;;;2.15;;
37339;SDS011;23223;51.006;7.610;2024-03-25T13:51:45;6.15;;;1.65;;
37339;SDS011;23223;51.006;7.610;2024-03-25T13:54:11;6.65;;;3.28;;
37339;SDS011;23223;51.006;7.610;2024-03-25T13:56:36;4.57;;;1.50;;
37339;SDS011;23223;51.006;7.610;2024-03-25T13:59:03;5.95;;;1.63;;
37339;SDS011;23223;51.006;7.610;2024-03-25T14:01:28;5.55;;;1.60;;
37339;SDS011;23223;51.006;7.610;2024-03-25T14:03:54;8.23;;;1.17;;
37339;SDS011;23223;51.006;7.610;2024-03-25T14:06:19;5.68;;;1.63;;
37339;SDS011;23223;51.006;7.610;2024-03-25T14:08:45;9.15;;;1.52;;
37339;SDS011;23223;51.006;7.610;2024-03-25T14:11:11;9.82;;;1.70;;
37339;SDS011;23223;51.006;7.610;2024-03-25T14:13:37;4.68;;;1.75;;
37339;SDS011;23223;51.006;7.610;2024-03-25T14:16:03;8.27;;;1.67;;
37339;SDS011;23223;51.006;7.610;2024-03-25T14:18:29;3.80;;;1.40;;
37339;SDS011;23223;51.006;7.610;2024-03-25T14:20:55;5.88;;;1.13;;
37339;SDS011;23223;51.006;7.610;2024-03-25T14:23:22;4.57;;;1.48;;
37339;SDS011;23223;51.006;7.610;2024-03-25T14:25:47;4.93;;;1.13;;
37339;SDS011;23223;51.006;7.610;2024-03-25T14:28:13;3.72;;;1.40;;
37339;SDS011;23223;51.006;7.610;2024-03-25T14:30:39;8.05;;;1.70;;
37339;SDS011;23223;51.006;7.610;2024-03-25T14:33:04;6.80;;;1.65;;
37339;SDS011;23223;51.006;7.610;2024-03-25T14:35:30;3.67;;;1.33;;
37339;SDS011;23223;51.006;7.610;2024-03-25T14:37:55;8.00;;;1.42;;